Time;durP1;ratioP1;P1;durP2;ratioP2;P2;SDS_P1;SDS_P2;PMS_P1;PMS_P2;Temp;Humidity;BMP_temperature;BMP_pressure;BME280_temperature;BME280_humidity;BME280_pressure;Samples;Min_cycle;Max_cycle;Signal;HPM_P1;HPM_P2
2023/01/18 00:01:52;;;;;;;46.25;29.92;;;;;;;7.52;61.73;99340.78;5092700;28;20416;-76
2023/01/18 00:04:17;;;;;;;40.97;29.17;;;;;;;7.54;62.01;99335.34;5091957;28;20416;-76
2023/01/18 00:06:43;;;;;;;39.07;24.87;;;;;;;7.62;61.90;99320.22;5091617;28;20420;-75
2023/01/18 00:09:08;;;;;;;44.70;28.63;;;;;;;7.48;61.55;99313.16;5092187;28;20389;-75
2023/01/18 00:11:34;;;;;;;43.87;28.87;;;;;;;7.34;62.53;99329.81;5091951;28;20381;-76
2023/01/18 00:14:01;;;;;;;58.43;37.90;;;;;;;7.36;62.82;99318.06;5090520;28;20791;-75
2023/01/18 00:16:29;;;;;;;48.85;32.67;;;;;;;7.40;62.83;99314.09;5091640;28;20381;-75
2023/01/18 00:18:56;;;;;;;46.37;30.63;;;;;;;7.49;61.94;99322.72;5091015;28;20624;-75
2023/01/18 00:21:23;;;;;;;37.85;27.20;;;;;;;7.26;62.22;99314.94;5091749;28;20437;-75
2023/01/18 00:23:48;;;;;;;46.00;30.67;;;;;;;7.21;62.46;99339.19;5091109;28;20388;-76
2023/01/18 00:26:14;;;;;;;41.53;28.60;;;;;;;7.22;62.30;99325.00;5090271;28;20413;-75
2023/01/18 00:28:40;;;;;;;41.60;28.30;;;;;;;7.31;62.12;99361.81;5091100;28;20448;-76
2023/01/18 00:31:10;;;;;;;40.38;27.10;;;;;;;7.28;62.15;99347.19;5091273;28;20381;-75
2023/01/18 00:33:36;;;;;;;36.90;24.77;;;;;;;7.39;62.00;99340.63;5089908;28;20442;-75
2023/01/18 00:36:04;;;;;;;38.22;26.00;;;;;;;7.32;62.10;99337.09;5090519;28;20394;-76
2023/01/18 00:38:30;;;;;;;35.13;24.00;;;;;;;7.25;62.49;99335.16;5091504;28;20460;-76
2023/01/18 00:40:56;;;;;;;37.70;24.20;;;;;;;7.31;62.72;99327.53;5091416;28;20464;-76
2023/01/18 00:43:37;;;;;;;36.03;25.30;;;;;;;7.45;62.06;99314.38;5091321;28;20442;-76
2023/01/18 00:46:06;;;;;;;38.42;26.08;;;;;;;7.10;62.50;99336.19;5090682;28;20935;-76
2023/01/18 00:48:32;;;;;;;47.75;28.45;;;;;;;7.12;63.26;99345.53;5091127;28;20849;-76
2023/01/18 00:50:58;;;;;;;38.88;25.55;;;;;;;7.20;62.60;99347.25;5091317;28;20380;-76
2023/01/18 00:53:23;;;;;;;38.63;26.07;;;;;;;7.25;62.73;99345.72;5090990;28;20385;-76
2023/01/18 00:55:48;;;;;;;34.23;22.03;;;;;;;7.33;62.57;99322.91;5105042;28;20415;-76
2023/01/18 00:58:14;;;;;;;36.45;23.45;;;;;;;7.49;62.01;99327.16;5111329;28;20824;-76
2023/01/18 01:00:40;;;;;;;36.07;25.20;;;;;;;7.47;61.67;99314.16;5110655;28;20847;-76
2023/01/18 01:03:07;;;;;;;36.17;24.48;;;;;;;7.45;61.76;99316.16;5109870;28;20386;-76
2023/01/18 01:08:16;;;;;;;42.45;26.63;;;;;;;7.27;61.80;99325.28;5111035;28;20487;-76
2023/01/18 01:10:49;;;;;;;43.88;28.10;;;;;;;7.39;61.78;99330.09;5111374;28;20442;-76
2023/01/18 01:27:09;;;;;;;42.17;26.80;;;;;;;6.87;62.56;99326.53;5110918;28;20386;-75
2023/01/18 01:29:35;;;;;;;45.50;29.90;;;;;;;6.94;62.52;99318.75;5109294;28;20411;-75
2023/01/18 01:32:02;;;;;;;48.53;31.52;;;;;;;7.03;62.17;99320.28;5110460;28;20384;-75
2023/01/18 01:34:28;;;;;;;44.42;29.17;;;;;;;7.13;61.94;99315.56;5111496;28;20455;-75
2023/01/18 01:36:54;;;;;;;44.00;27.30;;;;;;;7.12;61.58;99331.56;5111235;28;20379;-75
2023/01/18 01:39:20;;;;;;;41.90;28.30;;;;;;;7.15;61.58;99349.63;5110446;28;20455;-75
2023/01/18 01:41:45;;;;;;;41.65;27.20;;;;;;;7.16;61.19;99338.91;5108944;28;20482;-75
2023/01/18 01:44:20;;;;;;;46.83;29.05;;;;;;;7.20;61.40;99342.00;5113042;28;20363;-76
2023/01/18 01:47:13;;;;;;;46.80;28.98;;;;;;;7.18;61.12;99330.81;5114555;28;20882;-76
2023/01/18 01:49:47;;;;;;;50.55;28.35;;;;;;;6.54;62.69;99328.66;5115143;28;20371;-75
2023/01/18 01:52:18;;;;;;;64.93;36.53;;;;;;;6.85;62.51;99320.63;5115296;28;20379;-76
2023/01/18 01:55:01;;;;;;;54.10;32.90;;;;;;;6.67;62.13;99313.06;5114749;28;20432;-76
2023/01/18 01:57:35;;;;;;;52.42;33.20;;;;;;;6.86;61.94;99322.25;5114663;27;20417;-75
2023/01/18 02:00:06;;;;;;;48.63;30.13;;;;;;;6.91;61.77;99311.19;5114029;28;20863;-76
2023/01/18 02:02:33;;;;;;;48.17;29.30;;;;;;;6.95;61.52;99323.00;5114921;28;20391;-76
2023/01/18 02:05:01;;;;;;;45.47;28.42;;;;;;;6.98;61.31;99323.44;5114599;28;20399;-76
2023/01/18 02:07:27;;;;;;;48.90;31.13;;;;;;;6.97;61.64;99332.38;5115369;28;20899;-75
2023/01/18 02:09:55;;;;;;;46.75;29.05;;;;;;;6.78;61.52;99320.53;5114620;28;20393;-75
2023/01/18 02:12:21;;;;;;;48.15;29.98;;;;;;;6.76;61.81;99324.34;5114797;28;20466;-75
2023/01/18 02:14:46;;;;;;;49.00;29.63;;;;;;;6.80;61.66;99308.00;5114006;28;20407;-75
2023/01/18 02:17:27;;;;;;;45.23;29.23;;;;;;;6.85;61.40;99289.03;5114550;28;20395;-75
2023/01/18 02:19:58;;;;;;;41.42;26.95;;;;;;;6.78;61.44;99296.81;5114826;28;20860;-76
2023/01/18 02:22:46;;;;;;;34.35;24.35;;;;;;;6.78;61.71;99311.81;5113682;28;20384;-75
2023/01/18 02:25:23;;;;;;;37.58;25.15;;;;;;;6.67;61.63;99299.91;5114760;28;20391;-75
2023/01/18 02:28:20;;;;;;;39.90;26.42;;;;;;;6.62;61.83;99323.31;5114219;28;20774;-76
2023/01/18 02:31:07;;;;;;;38.72;24.40;;;;;;;6.59;62.24;99305.22;5091167;28;20494;-75
2023/01/18 02:34:17;;;;;;;36.47;23.20;;;;;;;6.62;61.85;99324.13;5113745;28;20382;-75
2023/01/18 02:36:48;;;;;;;33.20;22.90;;;;;;;6.60;61.84;99314.78;5071902;28;20964;-76
2023/01/18 02:39:30;;;;;;;31.13;21.15;;;;;;;6.65;61.86;99326.41;5107565;27;20391;-76
2023/01/18 02:47:33;;;;;;;32.27;21.63;;;;;;;6.59;61.74;99295.53;5114089;28;20387;-75
2023/01/18 02:49:58;;;;;;;34.13;22.05;;;;;;;6.55;61.65;99290.78;5114181;28;20398;-75
2023/01/18 02:52:36;;;;;;;30.08;20.42;;;;;;;6.59;61.42;99294.69;5113539;28;20403;-75
2023/01/18 02:55:01;;;;;;;30.90;21.90;;;;;;;6.65;61.42;99296.63;5113435;28;20828;-75
2023/01/18 02:57:28;;;;;;;34.87;22.27;;;;;;;6.69;61.36;99287.38;5113883;27;20414;-75
2023/01/18 02:59:55;;;;;;;51.30;31.98;;;;;;;6.41;61.58;99277.44;5113002;28;20466;-76
2023/01/18 03:02:25;;;;;;;40.67;27.13;;;;;;;6.38;62.45;99308.56;5114491;28;20458;-75
2023/01/18 03:04:55;;;;;;;48.28;31.60;;;;;;;6.51;61.80;99298.22;5113899;28;20875;-76
2023/01/18 03:07:31;;;;;;;70.47;42.88;;;;;;;6.41;62.07;99297.66;5113724;28;20790;-76
2023/01/18 03:09:59;;;;;;;69.10;45.30;;;;;;;6.48;61.95;99307.31;5113533;28;20836;-76
2023/01/18 03:12:45;;;;;;;45.90;30.58;;;;;;;6.58;61.50;99316.78;5113545;28;20517;-76
2023/01/18 03:15:33;;;;;;;44.30;27.95;;;;;;;6.53;61.31;99311.22;5112942;28;20444;-76
2023/01/18 03:18:21;;;;;;;45.07;29.10;;;;;;;6.47;61.42;99318.03;5112929;28;20399;-76
2023/01/18 03:20:54;;;;;;;46.08;33.80;;;;;;;6.54;61.38;99307.59;5111899;28;20462;-76
2023/01/18 03:23:37;;;;;;;51.30;45.63;;;;;;;6.52;61.07;99315.69;5112183;28;20836;-76
2023/01/18 03:26:13;;;;;;;40.25;27.80;;;;;;;6.38;61.39;99316.47;5114071;28;20906;-76
2023/01/18 03:34:37;;;;;;;38.50;24.98;;;;;;;6.32;61.34;99305.63;5110104;28;20432;-77
2023/01/18 03:37:12;;;;;;;40.85;28.05;;;;;;;6.24;61.90;99299.63;5110076;28;20380;-77
2023/01/18 03:39:50;;;;;;;45.92;34.00;;;;;;;6.26;61.78;99302.88;5108059;28;20388;-76
2023/01/18 03:42:21;;;;;;;44.78;30.88;;;;;;;6.23;61.61;99290.06;5111784;28;20847;-76
2023/01/18 03:44:53;;;;;;;38.77;28.27;;;;;;;6.22;61.62;99301.59;5111753;28;20444;-76
2023/01/18 03:47:19;;;;;;;38.38;26.65;;;;;;;6.11;61.72;99297.56;5108413;28;20434;-76
2023/01/18 03:49:45;;;;;;;42.78;30.95;;;;;;;6.04;62.00;99318.50;5111679;28;20412;-77
2023/01/18 03:52:23;;;;;;;41.80;31.70;;;;;;;6.03;61.86;99301.09;5110956;28;20417;-76
2023/01/18 03:55:02;;;;;;;42.08;30.23;;;;;;;5.92;62.10;99301.44;5110030;28;20445;-77
2023/01/18 03:57:45;;;;;;;39.00;27.90;;;;;;;5.87;62.16;99291.47;5109483;28;20387;-76
2023/01/18 04:00:13;;;;;;;42.75;24.38;;;;;;;5.87;61.89;99285.38;5110374;28;20387;-75
2023/01/18 04:02:38;;;;;;;36.17;25.15;;;;;;;5.90;61.73;99296.34;5108865;28;20744;-76
2023/01/18 04:05:05;;;;;;;44.83;34.83;;;;;;;5.94;61.59;99304.72;5109772;28;20929;-76
2023/01/18 04:07:31;;;;;;;40.58;26.73;;;;;;;5.82;61.46;99290.34;5111335;28;20379;-76
2023/01/18 04:09:58;;;;;;;42.10;28.48;;;;;;;5.65;62.52;99306.19;5107846;28;20460;-76
2023/01/18 04:12:23;;;;;;;47.22;29.75;;;;;;;5.73;61.83;99284.31;5110953;28;20384;-77
2023/01/18 04:14:49;;;;;;;48.72;37.65;;;;;;;5.76;61.93;99294.47;5111245;28;20391;-76
2023/01/18 04:17:16;;;;;;;40.80;22.95;;;;;;;5.63;62.38;99288.97;5111217;28;20372;-76
2023/01/18 04:19:41;;;;;;;34.67;22.15;;;;;;;5.42;62.40;99290.41;5110133;28;20452;-75
2023/01/18 04:22:07;;;;;;;74.38;66.25;;;;;;;5.61;62.37;99307.53;5110734;28;20748;-76
2023/01/18 04:24:33;;;;;;;41.15;26.52;;;;;;;5.72;62.04;99315.03;5110279;28;20868;-76
2023/01/18 04:26:58;;;;;;;39.43;32.07;;;;;;;5.77;61.40;99300.56;5110168;28;20437;-77
2023/01/18 04:29:24;;;;;;;38.30;24.80;;;;;;;5.58;62.34;99283.41;5110114;28;20404;-75
2023/01/18 04:31:49;;;;;;;37.93;26.17;;;;;;;5.59;61.93;99279.81;5110018;28;20420;-76
2023/01/18 04:34:15;;;;;;;38.63;25.65;;;;;;;5.68;62.29;99311.13;5109966;28;20384;-76
2023/01/18 04:36:40;;;;;;;37.17;26.77;;;;;;;5.78;61.79;99310.94;5110021;28;20380;-76
2023/01/18 04:39:06;;;;;;;36.50;26.07;;;;;;;5.74;61.69;99292.03;5110129;28;20392;-76
2023/01/18 04:41:32;;;;;;;36.30;26.40;;;;;;;5.86;61.62;99289.81;5110525;28;20383;-76
2023/01/18 04:43:57;;;;;;;33.20;24.87;;;;;;;5.70;62.12;99303.88;5110828;28;20931;-75
2023/01/18 04:46:23;;;;;;;48.77;29.87;;;;;;;5.67;62.05;99306.88;5111217;28;20495;-76
2023/01/18 04:48:50;;;;;;;85.13;76.75;;;;;;;5.78;62.14;99308.28;5107760;28;20421;-76
2023/01/18 04:51:17;;;;;;;30.10;23.33;;;;;;;5.62;62.10;99290.78;5110661;28;20406;-76
2023/01/18 04:53:43;;;;;;;30.98;23.88;;;;;;;5.46;62.64;99302.22;5109953;28;20384;-76
2023/01/18 04:56:09;;;;;;;70.55;63.05;;;;;;;5.64;62.24;99296.69;5107650;28;20382;-76
2023/01/18 04:58:36;;;;;;;42.80;38.13;;;;;;;5.81;62.07;99291.34;5109077;28;20383;-76
2023/01/18 05:01:06;;;;;;;29.13;21.10;;;;;;;5.72;61.68;99282.69;5110115;28;20388;-76
2023/01/18 05:03:36;;;;;;;36.50;31.90;;;;;;;5.58;62.29;99301.81;5102749;28;20438;-76
2023/01/18 05:06:07;;;;;;;30.47;21.70;;;;;;;5.44;62.46;99272.66;5103015;27;20921;-76
2023/01/18 05:08:33;;;;;;;29.73;22.13;;;;;;;5.33;63.41;99296.66;5108518;28;20705;-77
2023/01/18 05:11:09;;;;;;;46.77;33.70;;;;;;;5.48;63.00;99307.28;5110104;28;20386;-76
2023/01/18 05:13:34;;;;;;;45.72;32.00;;;;;;;5.30;63.21;99320.69;5104217;28;20386;-77
2023/01/18 05:16:00;;;;;;;55.63;39.72;;;;;;;5.40;63.11;99323.09;5110813;28;20383;-77
2023/01/18 05:18:26;;;;;;;44.50;30.90;;;;;;;5.35;63.54;99316.53;5109968;28;20379;-77
2023/01/18 05:20:52;;;;;;;37.38;28.35;;;;;;;5.51;63.78;99330.59;5099676;28;20376;-77
2023/01/18 05:23:17;;;;;;;49.60;36.57;;;;;;;5.75;63.00;99340.19;5110715;28;20419;-76
2023/01/18 05:25:43;;;;;;;38.45;26.83;;;;;;;5.86;62.63;99342.41;5110586;28;20407;-76
2023/01/18 05:28:09;;;;;;;47.00;33.67;;;;;;;5.90;62.84;99350.78;5110194;28;20391;-76
2023/01/18 05:30:40;;;;;;;52.75;41.53;;;;;;;5.97;62.15;99350.94;5110799;28;20470;-76
2023/01/18 05:33:05;;;;;;;48.08;34.25;;;;;;;6.03;62.41;99374.75;5106448;28;21061;-77
2023/01/18 05:35:31;;;;;;;67.40;59.08;;;;;;;6.07;62.64;99391.00;5109931;28;20470;-76
2023/01/18 05:37:57;;;;;;;50.70;33.55;;;;;;;5.87;62.71;99361.63;5095820;28;20373;-76
2023/01/18 05:40:22;;;;;;;39.30;26.65;;;;;;;5.59;63.88;99367.38;5101961;28;20379;-76
2023/01/18 05:42:48;;;;;;;36.97;25.17;;;;;;;5.71;63.84;99365.19;5098467;28;20408;-76
2023/01/18 05:45:14;;;;;;;36.53;25.23;;;;;;;5.93;63.48;99366.22;5090769;28;20815;-76
2023/01/18 05:47:40;;;;;;;45.78;28.58;;;;;;;6.03;62.63;99363.38;5098289;28;20710;-76
2023/01/18 05:50:06;;;;;;;40.78;27.88;;;;;;;5.73;63.62;99356.13;5107502;28;20940;-76
2023/01/18 05:52:32;;;;;;;34.00;23.45;;;;;;;5.80;63.72;99353.63;5107404;28;20388;-76
2023/01/18 05:54:57;;;;;;;38.70;26.08;;;;;;;5.99;63.20;99333.16;5096572;28;20373;-76
2023/01/18 05:57:23;;;;;;;33.40;23.77;;;;;;;5.85;63.29;99348.69;5103328;28;20876;-77
2023/01/18 05:59:48;;;;;;;32.43;23.33;;;;;;;5.86;63.38;99344.22;5108265;28;20372;-76
2023/01/18 06:02:14;;;;;;;33.38;22.92;;;;;;;5.97;63.07;99350.94;5109478;28;20401;-76
2023/01/18 06:04:39;;;;;;;34.50;24.10;;;;;;;6.16;62.71;99363.66;5108021;28;20390;-76
2023/01/18 06:07:05;;;;;;;46.83;31.83;;;;;;;6.14;62.54;99381.44;5108408;28;20384;-76
2023/01/18 06:09:30;;;;;;;53.50;34.22;;;;;;;6.12;62.57;99367.59;5108811;28;20387;-76
2023/01/18 06:11:56;;;;;;;45.27;31.27;;;;;;;6.02;63.07;99388.88;5110120;28;20376;-76
2023/01/18 06:14:21;;;;;;;51.13;33.17;;;;;;;6.20;63.15;99380.72;5103975;28;20730;-76
2023/01/18 06:16:47;;;;;;;45.47;30.10;;;;;;;6.09;62.96;99378.50;5094467;28;20467;-75
2023/01/18 06:19:12;;;;;;;41.15;28.13;;;;;;;6.22;62.63;99404.22;5086597;28;20408;-76
2023/01/18 06:21:38;;;;;;;45.20;30.00;;;;;;;6.35;62.37;99393.13;5106231;28;20785;-75
2023/01/18 06:24:03;;;;;;;43.60;29.93;;;;;;;6.36;62.38;99392.16;5109202;28;20376;-77
2023/01/18 06:26:30;;;;;;;40.45;27.48;;;;;;;6.34;62.63;99397.56;5095613;28;20927;-76
2023/01/18 06:28:56;;;;;;;39.65;27.73;;;;;;;6.41;62.30;99395.88;5108067;28;20418;-77
2023/01/18 06:31:22;;;;;;;34.50;26.08;;;;;;;6.45;61.93;99394.53;5112417;28;20391;-75
2023/01/18 06:33:47;;;;;;;35.55;26.00;;;;;;;6.25;62.36;99390.72;5113347;28;20733;-75
2023/01/18 06:36:13;;;;;;;47.50;27.85;;;;;;;6.25;62.38;99380.22;5113874;28;20374;-75
2023/01/18 06:38:40;;;;;;;51.72;30.45;;;;;;;6.35;62.60;99399.19;5113616;28;20414;-75
2023/01/18 06:41:06;;;;;;;75.35;55.53;;;;;;;6.41;61.98;99395.03;5114729;28;20759;-75
2023/01/18 06:43:31;;;;;;;62.80;40.47;;;;;;;6.30;62.28;99386.59;5113527;28;20820;-76
2023/01/18 06:45:57;;;;;;;57.05;37.60;;;;;;;6.46;62.64;99393.56;5113854;28;20409;-77
2023/01/18 06:48:25;;;;;;;52.95;34.03;;;;;;;6.58;61.75;99393.94;5109199;28;20395;-78
2023/01/18 06:50:51;;;;;;;55.00;34.03;;;;;;;6.66;61.94;99391.25;5106412;28;20471;-76
2023/01/18 06:53:19;;;;;;;46.67;31.50;;;;;;;6.68;62.03;99383.16;5112360;28;20388;-76
2023/01/18 06:55:51;;;;;;;47.30;31.63;;;;;;;6.75;61.97;99378.00;5099876;28;20371;-77
2023/01/18 06:58:17;;;;;;;48.42;32.47;;;;;;;6.72;62.42;99381.81;5113003;27;20376;-75
2023/01/18 07:00:42;;;;;;;45.95;32.83;;;;;;;6.82;62.37;99400.81;5113344;28;20435;-75
2023/01/18 07:03:09;;;;;;;50.67;34.87;;;;;;;6.75;62.50;99397.25;5113360;28;20379;-75
2023/01/18 07:05:35;;;;;;;43.63;31.45;;;;;;;6.77;62.65;99387.38;5104540;28;20409;-76
2023/01/18 07:08:00;;;;;;;41.63;31.33;;;;;;;6.84;62.65;99404.09;5096377;28;20764;-76
2023/01/18 07:10:44;;;;;;;45.60;32.80;;;;;;;6.99;62.48;99401.50;5103861;28;20484;-77
2023/01/18 07:13:10;;;;;;;52.05;36.10;;;;;;;7.05;62.47;99410.50;5093478;28;20386;-75
2023/01/18 07:15:35;;;;;;;50.43;34.27;;;;;;;7.11;62.42;99412.41;5093471;28;20388;-76
2023/01/18 07:18:01;;;;;;;53.72;37.10;;;;;;;7.17;62.54;99411.72;5105696;28;20856;-76
2023/01/18 07:20:28;;;;;;;50.60;33.93;;;;;;;7.23;62.26;99418.88;5113063;28;20376;-75
2023/01/18 07:22:53;;;;;;;56.20;38.40;;;;;;;7.31;62.36;99425.06;5111993;28;20379;-75
2023/01/18 07:25:19;;;;;;;49.70;34.13;;;;;;;7.37;62.14;99440.19;5109914;28;20412;-76
2023/01/18 07:27:45;;;;;;;56.53;36.10;;;;;;;7.51;62.14;99435.91;5093776;28;20380;-76
2023/01/18 07:30:11;;;;;;;57.15;39.80;;;;;;;7.53;62.07;99428.66;5092955;28;20417;-76
2023/01/18 07:32:37;;;;;;;53.72;37.88;;;;;;;7.56;62.23;99408.00;5092484;28;20405;-76
2023/01/18 07:35:04;;;;;;;54.43;38.90;;;;;;;7.69;61.84;99401.25;5092847;28;20373;-76
2023/01/18 07:37:30;;;;;;;57.17;40.05;;;;;;;7.67;62.07;99404.09;5092390;28;20485;-76
2023/01/18 07:39:55;;;;;;;57.60;38.63;;;;;;;7.71;62.43;99404.53;5092084;28;20461;-77
2023/01/18 07:42:21;;;;;;;56.97;38.70;;;;;;;7.81;62.50;99411.16;5105212;28;20463;-76
2023/01/18 07:44:46;;;;;;;53.95;37.65;;;;;;;7.90;62.26;99411.84;5112624;28;20371;-75
2023/01/18 07:47:12;;;;;;;57.43;37.67;;;;;;;7.97;62.40;99414.59;5110084;28;20375;-77
2023/01/18 07:49:37;;;;;;;55.87;37.83;;;;;;;8.09;61.83;99409.66;5094831;28;20390;-75
2023/01/18 07:52:03;;;;;;;56.45;36.15;;;;;;;8.12;61.72;99406.63;5092170;28;20369;-75
2023/01/18 07:54:28;;;;;;;56.17;38.17;;;;;;;8.20;62.16;99425.00;5097542;28;20388;-76
2023/01/18 07:56:54;;;;;;;52.23;38.43;;;;;;;8.16;62.13;99421.91;5105797;28;20435;-75
2023/01/18 07:59:19;;;;;;;60.47;42.40;;;;;;;8.19;62.11;99437.41;5104977;28;20764;-76
2023/01/18 08:01:45;;;;;;;61.85;41.45;;;;;;;8.26;62.24;99441.91;5098653;28;20372;-76
2023/01/18 08:04:10;;;;;;;73.40;49.53;;;;;;;8.46;61.90;99434.25;5112819;28;20376;-76
2023/01/18 08:06:36;;;;;;;75.47;47.93;;;;;;;8.50;61.74;99427.56;5100616;28;20409;-77
2023/01/18 08:09:01;;;;;;;64.00;43.58;;;;;;;8.56;62.19;99454.06;5112598;28;20384;-76
2023/01/18 08:11:28;;;;;;;58.42;36.30;;;;;;;8.51;61.62;99451.16;5101102;28;20470;-76
2023/01/18 08:13:53;;;;;;;63.83;38.95;;;;;;;8.49;61.79;99457.63;5110676;28;20390;-78
2023/01/18 08:16:19;;;;;;;68.13;41.20;;;;;;;8.45;62.26;99456.38;5113053;28;20372;-75
2023/01/18 08:18:47;;;;;;;68.90;43.03;;;;;;;8.69;61.76;99471.03;5112135;28;20394;-75
2023/01/18 08:21:13;;;;;;;78.18;46.10;;;;;;;8.83;62.04;99479.94;5112414;28;20383;-75
2023/01/18 08:23:38;;;;;;;77.97;50.10;;;;;;;8.85;61.43;99475.28;5112149;28;20589;-76
2023/01/18 08:26:06;;;;;;;68.25;43.90;;;;;;;8.87;61.98;99486.47;5092148;28;20408;-76
2023/01/18 08:28:32;;;;;;;64.95;38.30;;;;;;;8.74;62.06;99522.31;5094105;28;20412;-77
2023/01/18 08:31:15;;;;;;;61.43;36.47;;;;;;;8.57;62.53;99511.16;5112543;28;20459;-75
2023/01/18 08:33:47;;;;;;;49.55;34.65;;;;;;;8.78;62.43;99520.94;5112654;27;20407;-75
2023/01/18 08:36:18;;;;;;;39.80;25.55;;;;;;;8.91;62.17;99503.56;5112518;28;20380;-76
2023/01/18 08:38:48;;;;;;;40.38;26.63;;;;;;;8.91;61.63;99498.28;5112376;28;20391;-76
2023/01/18 08:41:14;;;;;;;35.95;25.60;;;;;;;8.95;62.25;99479.22;5113053;28;20380;-78
2023/01/18 08:43:39;;;;;;;29.83;21.05;;;;;;;9.06;61.65;99482.38;5112048;28;20375;-76
2023/01/18 08:46:05;;;;;;;28.77;19.83;;;;;;;9.06;61.67;99477.91;5111989;28;20864;-76
2023/01/18 08:48:30;;;;;;;28.00;18.92;;;;;;;9.12;62.13;99487.69;5111949;28;20944;-77
2023/01/18 08:51:00;;;;;;;25.73;19.10;;;;;;;9.23;61.59;99489.00;5112478;28;20441;-75
2023/01/18 08:53:25;;;;;;;26.88;19.90;;;;;;;9.29;61.81;99512.06;5111286;28;20799;-76
2023/01/18 08:55:50;;;;;;;28.25;19.73;;;;;;;9.37;61.53;99501.31;5113400;28;20364;-75
2023/01/18 08:58:16;;;;;;;55.77;37.40;;;;;;;9.51;61.69;99504.91;5091000;27;20399;-75
2023/01/18 09:00:41;;;;;;;26.92;19.40;;;;;;;9.73;61.21;99512.78;5111579;28;20440;-75
2023/01/18 09:03:07;;;;;;;29.87;20.60;;;;;;;9.94;60.84;99525.13;5112061;28;20390;-75
2023/01/18 09:05:34;;;;;;;28.47;20.10;;;;;;;9.71;61.25;99528.03;5111908;28;20414;-74
2023/01/18 09:08:00;;;;;;;29.33;20.00;;;;;;;9.92;61.49;99535.91;5112032;28;20398;-75
2023/01/18 09:10:26;;;;;;;28.48;20.92;;;;;;;9.89;60.87;99540.78;5111895;28;20371;-75
2023/01/18 09:12:52;;;;;;;58.33;36.73;;;;;;;9.94;61.24;99551.59;5111856;28;20391;-76
2023/01/18 09:15:18;;;;;;;29.70;20.30;;;;;;;10.20;61.03;99547.47;5111517;28;20462;-75
2023/01/18 09:17:44;;;;;;;26.40;18.83;;;;;;;10.42;60.51;99541.06;5111174;28;20483;-75
2023/01/18 09:20:10;;;;;;;27.48;19.20;;;;;;;10.46;60.35;99537.00;5110254;28;20379;-76
2023/01/18 09:22:36;;;;;;;26.90;18.52;;;;;;;10.52;60.49;99538.03;5112071;28;20386;-75
2023/01/18 09:25:02;;;;;;;25.10;17.92;;;;;;;10.58;60.48;99526.63;5111002;28;20376;-76
2023/01/18 09:27:27;;;;;;;23.70;18.07;;;;;;;10.62;60.18;99513.81;5109474;28;20368;-75
2023/01/18 09:29:52;;;;;;;25.80;18.63;;;;;;;10.56;60.78;99518.06;5110376;28;20764;-75
2023/01/18 09:32:20;;;;;;;29.33;19.70;;;;;;;10.56;60.56;99522.56;5110090;28;20395;-76
2023/01/18 09:34:49;;;;;;;28.45;21.00;;;;;;;10.61;60.91;99525.44;5110925;28;20908;-75
2023/01/18 09:37:16;;;;;;;32.47;21.02;;;;;;;10.78;60.46;99513.44;5110744;28;20397;-75
2023/01/18 09:39:41;;;;;;;29.65;19.85;;;;;;;10.89;60.43;99512.88;5111348;28;20371;-76
2023/01/18 09:42:15;;;;;;;26.43;19.40;;;;;;;10.89;60.14;99502.25;5110716;28;20416;-76
2023/01/18 09:44:44;;;;;;;28.13;20.15;;;;;;;10.93;60.42;99491.22;5110996;28;20384;-76
2023/01/18 09:47:20;;;;;;;29.23;21.40;;;;;;;11.02;60.30;99500.63;5111110;28;20808;-75
2023/01/18 09:49:54;;;;;;;32.28;22.30;;;;;;;11.10;59.92;99488.00;5111040;28;20375;-75
2023/01/18 09:52:22;;;;;;;30.05;22.15;;;;;;;11.28;60.08;99492.69;5110877;28;20840;-75
2023/01/18 09:54:55;;;;;;;30.40;22.17;;;;;;;11.40;59.73;99479.63;5111171;28;20486;-76
2023/01/18 09:58:15;;;;;;;32.65;23.25;;;;;;;11.56;59.64;99483.69;5110268;28;20387;-75
2023/01/18 10:00:45;;;;;;;29.33;22.48;;;;;;;11.61;59.65;99470.63;5029010;28;20473;-76
2023/01/18 10:03:31;;;;;;;27.40;20.67;;;;;;;11.80;59.56;99486.72;5028644;28;20491;-77
2023/01/18 10:06:07;;;;;;;30.42;21.05;;;;;;;11.95;59.34;99489.13;5094113;28;20502;-78
2023/01/18 10:08:43;;;;;;;25.60;19.37;;;;;;;12.13;58.92;99501.75;5115027;28;20367;-75
2023/01/18 10:11:28;;;;;;;28.75;20.08;;;;;;;12.28;58.98;99499.66;5114584;28;20720;-75
2023/01/18 10:14:22;;;;;;;25.95;21.02;;;;;;;12.33;58.39;99512.28;5114871;28;20467;-76
2023/01/18 10:16:55;;;;;;;29.23;21.52;;;;;;;12.46;58.34;99524.72;5114690;28;20416;-76
2023/01/18 10:19:27;;;;;;;30.92;23.25;;;;;;;12.50;57.86;99532.06;5114787;28;20402;-77
2023/01/18 10:21:53;;;;;;;31.25;23.02;;;;;;;12.61;57.67;99534.03;5115527;28;20464;-78
2023/01/18 10:24:29;;;;;;;32.30;21.70;;;;;;;12.87;57.09;99536.78;5114340;28;20426;-78
2023/01/18 10:27:19;;;;;;;36.87;25.43;;;;;;;13.01;57.12;99551.63;5114768;28;20455;-77
2023/01/18 10:29:47;;;;;;;29.83;22.50;;;;;;;13.11;57.07;99544.00;5114578;28;20403;-77
2023/01/18 10:32:19;;;;;;;34.58;23.33;;;;;;;13.23;56.82;99532.66;5114796;28;20836;-75
2023/01/18 10:34:48;;;;;;;31.33;21.65;;;;;;;13.37;57.08;99532.34;5114763;28;20524;-74
2023/01/18 10:37:39;;;;;;;29.63;21.20;;;;;;;13.52;56.85;99532.03;5114399;28;20724;-75
2023/01/18 10:40:08;;;;;;;27.45;18.80;;;;;;;13.54;57.12;99529.97;5113996;28;20405;-75
2023/01/18 10:42:50;;;;;;;25.73;17.08;;;;;;;13.67;57.42;99531.69;5113263;28;20379;-77
2023/01/18 10:45:20;;;;;;;22.60;16.77;;;;;;;13.79;56.72;99526.44;5113815;28;20407;-76
2023/01/18 10:47:51;;;;;;;25.20;18.88;;;;;;;13.95;56.77;99535.72;5114683;28;20368;-76
2023/01/18 10:50:31;;;;;;;24.42;18.65;;;;;;;14.11;56.85;99534.31;5114305;28;20382;-76
2023/01/18 10:52:57;;;;;;;25.70;18.15;;;;;;;14.12;55.95;99523.44;5114273;28;20371;-75
2023/01/18 10:55:22;;;;;;;23.20;17.83;;;;;;;14.31;56.38;99542.91;5113751;28;20474;-76
2023/01/18 10:57:52;;;;;;;23.90;18.73;;;;;;;14.45;56.05;99537.41;5114066;28;20379;-77
2023/01/18 11:00:20;;;;;;;24.92;17.48;;;;;;;14.55;55.83;99532.38;5113750;27;20384;-75
2023/01/18 11:02:48;;;;;;;20.83;16.35;;;;;;;14.61;55.36;99536.03;5113727;28;20375;-74
2023/01/18 11:05:31;;;;;;;25.27;17.55;;;;;;;14.82;55.34;99543.53;5114011;28;20411;-76
2023/01/18 11:08:31;;;;;;;27.73;16.33;;;;;;;14.96;54.76;99533.47;5113810;28;20901;-75
2023/01/18 11:11:13;;;;;;;18.37;13.40;;;;;;;15.21;53.22;99538.63;5113484;28;20387;-76
2023/01/18 11:13:43;;;;;;;17.38;12.45;;;;;;;15.21;53.60;99541.28;5113906;28;20463;-76
2023/01/18 11:16:12;;;;;;;15.85;8.93;;;;;;;15.35;52.82;99535.75;5113449;28;20384;-75
2023/01/18 11:18:54;;;;;;;17.35;7.72;;;;;;;15.57;52.48;99542.16;5113561;28;20425;-75
2023/01/18 11:21:20;;;;;;;7.10;3.00;;;;;;;15.81;50.93;99539.50;5112726;28;20379;-76
2023/01/18 11:23:45;;;;;;;3.30;1.50;;;;;;;16.08;49.75;99545.22;5112726;28;20440;-76
2023/01/18 11:26:11;;;;;;;5.00;1.95;;;;;;;16.07;50.62;99543.56;5113365;28;20391;-76
2023/01/18 11:28:43;;;;;;;3.67;1.93;;;;;;;16.03;51.03;99547.75;5113213;28;20434;-77
2023/01/18 11:31:15;;;;;;;3.60;1.70;;;;;;;16.19;50.56;99541.69;5113775;28;20890;-76
2023/01/18 11:33:50;;;;;;;6.22;2.20;;;;;;;16.44;48.48;99540.59;5113902;28;20389;-76
2023/01/18 11:36:18;;;;;;;4.38;1.70;;;;;;;16.66;48.21;99558.66;5113029;28;20403;-76
2023/01/18 11:38:44;;;;;;;3.35;1.50;;;;;;;16.71;47.42;99554.22;5113284;28;20384;-75
2023/01/18 11:41:17;;;;;;;3.03;1.80;;;;;;;16.86;47.46;99539.53;5112442;28;20441;-76
2023/01/18 11:44:13;;;;;;;4.97;2.20;;;;;;;16.99;47.01;99552.59;5112724;28;20983;-76
2023/01/18 11:46:46;;;;;;;4.55;1.92;;;;;;;17.02;46.30;99552.13;5106528;28;20411;-76
2023/01/18 11:49:20;;;;;;;4.35;2.20;;;;;;;17.28;45.82;99552.56;5112675;28;20387;-76
2023/01/18 11:52:04;;;;;;;5.60;1.80;;;;;;;17.36;45.20;99562.88;5094924;28;20377;-75
2023/01/18 11:54:38;;;;;;;5.13;2.40;;;;;;;17.42;45.66;99564.59;5093138;28;20378;-75
2023/01/18 11:57:06;;;;;;;3.38;2.00;;;;;;;17.53;45.24;99576.28;5096103;28;20804;-75
2023/01/18 11:59:38;;;;;;;4.18;2.25;;;;;;;17.70;44.61;99561.00;5092878;28;20431;-76
2023/01/18 12:02:39;;;;;;;3.75;1.48;;;;;;;17.81;44.10;99558.47;5092921;28;21044;-77
2023/01/18 12:05:53;;;;;;;4.93;1.40;;;;;;;17.88;44.88;99572.53;5088279;28;20413;-76